createdAt,value
2022-12-16T00:02:25.459Z,49.46
2022-12-16T00:04:52.231Z,49.42
2022-12-16T00:07:20.236Z,49.34
2022-12-16T00:09:46.912Z,49.01
2022-12-16T00:12:13.742Z,49.12
2022-12-16T00:14:40.435Z,49.15
2022-12-16T00:17:07.272Z,49.47
2022-12-16T00:19:33.970Z,49.12
2022-12-16T00:22:00.695Z,49.30
2022-12-16T00:24:27.324Z,49.09
2022-12-16T00:26:54.554Z,49.30
2022-12-16T00:29:21.615Z,49.04
2022-12-16T00:31:48.489Z,49.33
2022-12-16T00:34:16.251Z,49.22
2022-12-16T00:36:43.817Z,49.00
2022-12-16T00:39:11.156Z,49.14
2022-12-16T00:41:37.968Z,48.81
2022-12-16T00:44:04.927Z,49.03
2022-12-16T00:46:31.670Z,48.76
2022-12-16T00:48:58.398Z,48.74
2022-12-16T00:51:25.200Z,49.10
2022-12-16T00:53:52.083Z,48.75
2022-12-16T00:56:19.055Z,49.01
2022-12-16T00:58:46.134Z,48.88
2022-12-16T01:01:13.169Z,49.01
2022-12-16T01:03:40.654Z,49.23
2022-12-16T01:06:13.011Z,48.85
2022-12-16T01:08:39.723Z,49.13
2022-12-16T01:11:06.470Z,48.81
2022-12-16T01:13:33.498Z,48.89
2022-12-16T01:16:02.336Z,49.02
2022-12-16T01:18:29.350Z,48.69
2022-12-16T01:21:05.706Z,48.67
2022-12-16T01:23:33.782Z,48.93
2022-12-16T01:26:01.695Z,49.11
2022-12-16T01:28:29.553Z,48.76
2022-12-16T01:31:02.003Z,48.89
2022-12-16T01:33:30.709Z,49.16
2022-12-16T01:36:08.350Z,49.11
2022-12-16T01:38:36.023Z,48.73
2022-12-16T01:41:03.430Z,49.15
2022-12-16T01:43:49.017Z,48.91
2022-12-16T01:46:23.849Z,48.94
2022-12-16T01:49:00.922Z,49.27
2022-12-16T01:51:32.964Z,49.12
2022-12-16T01:54:08.926Z,48.75
2022-12-16T01:56:39.293Z,49.28
2022-12-16T01:59:06.084Z,49.30
2022-12-16T02:01:33.003Z,48.90
2022-12-16T02:04:01.988Z,49.10
2022-12-16T02:06:30.218Z,48.98
2022-12-16T02:08:58.599Z,49.20
2022-12-16T02:11:36.175Z,49.20
2022-12-16T02:14:24.071Z,49.46
2022-12-16T02:17:20.712Z,49.08
2022-12-16T02:20:05.747Z,49.06
2022-12-16T02:22:50.882Z,48.96
2022-12-16T02:25:47.896Z,49.09
2022-12-16T02:28:33.630Z,49.15
2022-12-16T02:31:26.817Z,48.85
2022-12-16T02:33:56.790Z,48.75
2022-12-16T02:36:55.463Z,48.95
2022-12-16T02:39:30.988Z,48.45
2022-12-16T02:42:05.714Z,48.60
2022-12-16T02:44:46.033Z,48.71
2022-12-16T02:47:12.902Z,48.59
2022-12-16T02:49:48.428Z,48.96
2022-12-16T02:52:15.844Z,48.57
2022-12-16T02:54:51.968Z,48.49
2022-12-16T02:57:38.670Z,48.45
2022-12-16T03:00:09.214Z,48.44
2022-12-16T03:02:54.964Z,48.46
2022-12-16T03:05:31.424Z,48.70
2022-12-16T03:08:01.044Z,48.30
2022-12-16T03:10:30.770Z,48.64
2022-12-16T03:12:58.695Z,48.27
2022-12-16T03:15:27.327Z,48.41
2022-12-16T03:17:55.176Z,48.40
2022-12-16T03:20:27.689Z,48.67
2022-12-16T03:22:57.682Z,48.71
2022-12-16T03:25:26.745Z,48.21
2022-12-16T03:28:08.320Z,48.53
2022-12-16T03:30:40.839Z,48.45
2022-12-16T03:33:24.894Z,48.56
2022-12-16T03:35:57.801Z,48.03
2022-12-16T03:38:25.516Z,48.12
2022-12-16T03:40:52.839Z,48.12
2022-12-16T03:43:21.817Z,48.31
2022-12-16T03:45:52.133Z,48.40
2022-12-16T03:48:23.208Z,48.17
2022-12-16T03:50:50.036Z,48.37
2022-12-16T03:53:16.756Z,48.34
2022-12-16T03:55:43.520Z,48.44
2022-12-16T03:58:10.505Z,48.32
2022-12-16T04:00:37.361Z,48.46
2022-12-16T04:03:04.266Z,48.15
2022-12-16T04:05:31.137Z,48.28
2022-12-16T04:08:01.801Z,48.10
2022-12-16T04:10:47.676Z,47.95
2022-12-16T04:13:33.266Z,48.26
2022-12-16T04:16:18.943Z,47.92
2022-12-16T04:19:05.694Z,47.95
2022-12-16T04:21:51.134Z,47.93
2022-12-16T04:24:19.769Z,48.27
2022-12-16T04:27:15.123Z,48.07
2022-12-16T04:30:01.487Z,47.86
2022-12-16T04:32:48.413Z,48.02
2022-12-16T04:35:33.581Z,48.02
2022-12-16T04:38:18.723Z,47.83
2022-12-16T04:41:04.186Z,48.08
2022-12-16T04:43:49.600Z,48.12
2022-12-16T04:46:34.991Z,47.96
2022-12-16T04:49:20.221Z,47.90
2022-12-16T04:52:05.697Z,48.08
2022-12-16T04:54:51.069Z,47.95
2022-12-16T04:57:36.321Z,47.60
2022-12-16T05:00:22.739Z,47.81
2022-12-16T05:03:08.927Z,47.77
2022-12-16T05:05:54.431Z,47.56
2022-12-16T05:08:39.698Z,47.97
2022-12-16T05:11:25.025Z,47.51
2022-12-16T05:14:10.501Z,47.54
2022-12-16T05:16:55.921Z,47.66
2022-12-16T05:19:41.241Z,47.79
2022-12-16T05:22:26.616Z,47.58
2022-12-16T05:25:11.968Z,47.57
2022-12-16T05:27:57.537Z,47.59
2022-12-16T05:30:42.624Z,47.69
2022-12-16T05:33:27.962Z,47.27
2022-12-16T05:36:13.361Z,47.46
2022-12-16T05:38:58.680Z,47.36
2022-12-16T05:41:44.160Z,47.40
2022-12-16T05:44:29.167Z,47.25
2022-12-16T05:47:14.518Z,47.43
2022-12-16T05:49:59.953Z,47.18
2022-12-16T05:52:46.043Z,47.40
2022-12-16T05:55:34.027Z,47.12
2022-12-16T05:58:19.637Z,47.14
2022-12-16T06:01:05.130Z,47.43
2022-12-16T06:03:50.491Z,47.35
2022-12-16T06:06:35.870Z,47.00
2022-12-16T06:09:22.327Z,46.96
2022-12-16T06:12:08.636Z,47.02
2022-12-16T06:14:54.049Z,46.99
2022-12-16T06:17:40.804Z,46.89
2022-12-16T06:20:26.589Z,47.08
2022-12-16T06:23:15.417Z,46.92
2022-12-16T06:26:01.113Z,47.23
2022-12-16T06:28:46.349Z,46.98
2022-12-16T06:31:32.392Z,46.94
2022-12-16T06:34:17.714Z,47.13
2022-12-16T06:37:02.921Z,46.98
2022-12-16T06:39:52.777Z,46.91
2022-12-16T06:42:38.776Z,46.93
2022-12-16T06:45:34.493Z,46.72
2022-12-16T06:48:25.815Z,46.26
2022-12-16T06:51:14.929Z,46.08
2022-12-16T06:54:03.299Z,46.11
2022-12-16T06:56:49.333Z,46.26
2022-12-16T06:59:34.592Z,46.54
2022-12-16T07:02:20.124Z,46.34
2022-12-16T07:05:06.670Z,46.71
2022-12-16T07:07:52.379Z,47.17
2022-12-16T07:10:37.905Z,47.07
2022-12-16T07:13:23.293Z,47.04
2022-12-16T07:16:08.910Z,47.38
2022-12-16T07:18:54.288Z,47.02
2022-12-16T07:21:39.531Z,47.21
2022-12-16T07:24:24.959Z,47.55
2022-12-16T07:27:18.211Z,47.49
2022-12-16T07:30:03.820Z,47.73
2022-12-16T07:32:48.842Z,48.08
2022-12-16T07:35:34.178Z,47.95
2022-12-16T07:38:19.410Z,47.84
2022-12-16T07:41:06.721Z,48.25
2022-12-16T07:43:51.965Z,48.22
2022-12-16T07:46:37.382Z,48.13
2022-12-16T07:49:22.679Z,47.95
2022-12-16T07:52:08.317Z,47.99
2022-12-16T07:54:55.233Z,48.53
2022-12-16T07:57:41.259Z,48.34
2022-12-16T08:00:26.963Z,48.39
2022-12-16T08:03:13.641Z,48.71
2022-12-16T08:05:58.989Z,48.19
2022-12-16T08:08:44.310Z,48.27
2022-12-16T08:11:29.613Z,48.25
2022-12-16T08:14:14.824Z,47.90
2022-12-16T08:17:00.337Z,48.20
2022-12-16T08:19:48.759Z,47.73
2022-12-16T08:22:36.394Z,48.12
2022-12-16T08:25:25.926Z,47.87
2022-12-16T08:28:15.480Z,47.79
2022-12-16T08:31:00.874Z,47.79
2022-12-16T08:33:46.226Z,47.95
2022-12-16T08:36:31.617Z,47.61
2022-12-16T08:39:16.778Z,47.45
2022-12-16T08:42:02.029Z,47.66
2022-12-16T08:44:47.385Z,47.65
2022-12-16T08:47:32.694Z,47.62
2022-12-16T08:50:17.992Z,47.93
2022-12-16T08:53:03.348Z,47.89
2022-12-16T08:55:48.643Z,48.40
2022-12-16T08:58:33.921Z,48.74
2022-12-16T09:01:19.338Z,49.07
2022-12-16T09:04:05.210Z,48.93
2022-12-16T09:06:50.458Z,49.34
2022-12-16T09:09:35.653Z,49.59
2022-12-16T09:12:21.477Z,49.07
2022-12-16T09:15:06.794Z,49.21
2022-12-16T09:17:52.238Z,49.12
2022-12-16T09:20:38.299Z,49.18
2022-12-16T09:23:23.619Z,49.57
2022-12-16T09:26:09.039Z,49.71
2022-12-16T09:29:08.162Z,49.89
2022-12-16T09:31:53.496Z,49.89
2022-12-16T09:34:38.797Z,50.10
2022-12-16T09:37:24.274Z,49.74
2022-12-16T09:40:09.480Z,49.48
2022-12-16T09:42:57.660Z,49.23
2022-12-16T09:45:46.048Z,49.13
2022-12-16T09:48:37.066Z,49.11
2022-12-16T09:51:23.649Z,49.08
2022-12-16T09:54:10.922Z,49.30
2022-12-16T09:56:56.115Z,49.67
2022-12-16T09:59:46.627Z,49.39
2022-12-16T10:02:36.120Z,49.54
2022-12-16T10:05:22.261Z,49.62
2022-12-16T10:08:19.057Z,49.59
2022-12-16T10:11:33.296Z,49.58
2022-12-16T10:14:29.850Z,49.22
2022-12-16T10:17:24.821Z,49.81
2022-12-16T10:20:22.901Z,49.55
2022-12-16T10:23:19.959Z,49.72
2022-12-16T10:26:31.579Z,49.55
2022-12-16T10:29:25.090Z,49.24
2022-12-16T10:32:10.405Z,49.85
2022-12-16T10:34:56.186Z,50.01
2022-12-16T10:37:53.133Z,49.67
2022-12-16T10:40:44.042Z,50.31
2022-12-16T10:43:30.291Z,49.99
2022-12-16T10:46:16.263Z,50.04
2022-12-16T10:49:02.361Z,49.97
2022-12-16T10:51:48.152Z,50.45
2022-12-16T10:54:39.496Z,50.26
2022-12-16T10:57:34.402Z,50.11
2022-12-16T11:00:34.409Z,50.26
2022-12-16T11:03:38.810Z,50.75
2022-12-16T11:06:25.396Z,50.83
2022-12-16T11:09:14.590Z,50.52
2022-12-16T11:12:09.083Z,50.42
2022-12-16T11:15:27.709Z,50.05
2022-12-16T11:18:24.699Z,49.82
2022-12-16T11:21:31.469Z,49.82
2022-12-16T11:24:26.538Z,49.37
2022-12-16T11:27:13.787Z,49.42
2022-12-16T11:30:13.143Z,49.35
2022-12-16T11:33:02.692Z,49.09
2022-12-16T11:35:50.342Z,48.96
2022-12-16T11:38:42.959Z,48.88
2022-12-16T11:41:37.718Z,48.93
2022-12-16T11:44:24.046Z,48.60
2022-12-16T11:47:11.581Z,48.54
2022-12-16T11:49:57.403Z,48.82
2022-12-16T11:52:42.746Z,48.74
2022-12-16T11:58:55.677Z,49.10
2022-12-16T12:02:01.773Z,48.97
2022-12-16T12:04:47.176Z,49.08
2022-12-16T12:07:44.488Z,48.74
2022-12-16T12:10:42.464Z,49.09
2022-12-16T12:13:45.894Z,48.73
2022-12-16T12:16:47.595Z,48.39
2022-12-16T12:19:32.645Z,48.48
2022-12-16T12:22:23.110Z,48.26
2022-12-16T12:25:16.624Z,48.72
2022-12-16T12:28:11.061Z,48.59
2022-12-16T12:31:33.427Z,48.83
2022-12-16T12:34:36.059Z,48.52
2022-12-16T12:37:28.589Z,48.44
2022-12-16T12:40:41.264Z,48.76
2022-12-16T12:43:43.437Z,49.08
2022-12-16T12:46:52.098Z,48.65
2022-12-16T12:49:40.599Z,48.55
2022-12-16T12:52:59.571Z,48.50
2022-12-16T12:55:55.633Z,48.23
2022-12-16T12:58:42.184Z,48.63
2022-12-16T13:01:28.069Z,48.93
2022-12-16T13:04:35.928Z,48.87
2022-12-16T13:07:22.669Z,48.97
2022-12-16T13:10:34.557Z,49.19
2022-12-16T13:13:41.198Z,49.90
2022-12-16T13:16:30.333Z,49.67
2022-12-16T13:19:54.415Z,49.95
2022-12-16T13:22:54.665Z,50.03
2022-12-16T13:25:52.072Z,50.02
2022-12-16T13:28:46.209Z,50.41
2022-12-16T13:31:32.983Z,50.34
2022-12-16T13:34:26.613Z,50.36
2022-12-16T13:37:21.382Z,50.60
2022-12-16T13:40:38.700Z,50.95
2022-12-16T13:43:24.531Z,51.03
2022-12-16T13:46:15.656Z,51.06
2022-12-16T13:49:01.495Z,50.92
2022-12-16T13:51:55.994Z,51.33
2022-12-16T13:54:47.520Z,51.23
2022-12-16T13:57:33.168Z,50.95
2022-12-16T14:00:19.481Z,51.25
2022-12-16T14:03:05.030Z,51.47
2022-12-16T14:05:55.166Z,51.46
2022-12-16T14:08:42.474Z,51.18
2022-12-16T14:12:13.223Z,51.40
2022-12-16T14:15:07.083Z,51.13
2022-12-16T14:18:06.653Z,50.99
2022-12-16T14:21:08.170Z,51.09
2022-12-16T14:24:00.882Z,51.25
2022-12-16T14:26:46.568Z,51.10
2022-12-16T14:29:44.628Z,51.11
2022-12-16T14:32:42.010Z,50.87
2022-12-16T14:35:36.113Z,50.98
2022-12-16T14:38:41.374Z,51.22
2022-12-16T14:41:30.739Z,51.32
2022-12-16T14:44:16.145Z,50.93
2022-12-16T14:47:01.665Z,50.64
2022-12-16T14:49:48.407Z,50.74
2022-12-16T14:52:45.599Z,50.63
2022-12-16T14:55:31.881Z,50.83
2022-12-16T14:58:30.910Z,50.44
2022-12-16T15:01:16.731Z,50.53
2022-12-16T15:04:06.299Z,50.45
2022-12-16T15:06:55.950Z,50.19
2022-12-16T15:09:53.589Z,50.28
2022-12-16T15:12:43.862Z,50.07
2022-12-16T15:15:36.307Z,50.34
2022-12-16T15:18:22.236Z,50.58
2022-12-16T15:21:13.296Z,50.03
2022-12-16T15:24:03.669Z,50.58
2022-12-16T15:26:51.732Z,50.56
2022-12-16T15:30:03.250Z,50.76
2022-12-16T15:32:54.683Z,50.36
2022-12-16T15:35:44.635Z,50.67
2022-12-16T15:38:46.153Z,50.68
2022-12-16T15:41:40.548Z,50.66
2022-12-16T15:44:34.254Z,50.95
2022-12-16T15:47:19.483Z,50.96
2022-12-16T15:50:06.423Z,50.88
2022-12-16T15:52:58.792Z,50.76
2022-12-16T15:55:46.478Z,51.00
2022-12-16T15:58:40.362Z,51.16
2022-12-16T16:01:26.699Z,50.64
2022-12-16T16:04:14.247Z,51.04
2022-12-16T16:07:10.002Z,51.11
2022-12-16T16:09:58.234Z,51.16
2022-12-16T16:12:54.348Z,51.34
2022-12-16T16:15:43.094Z,51.53
2022-12-16T16:18:28.429Z,51.74
2022-12-16T16:21:13.675Z,51.13
2022-12-16T16:23:59.044Z,51.26
2022-12-16T16:26:45.860Z,51.48
2022-12-16T16:29:31.305Z,51.53
2022-12-16T16:32:16.596Z,51.81
2022-12-16T16:35:01.891Z,51.84
2022-12-16T16:37:47.267Z,51.51
2022-12-16T16:40:52.220Z,51.96
2022-12-16T16:43:40.590Z,51.70
2022-12-16T16:46:38.591Z,51.65
2022-12-16T16:49:43.167Z,51.93
2022-12-16T16:52:34.209Z,51.80
2022-12-16T16:55:19.489Z,51.25
2022-12-16T16:58:04.958Z,51.55
2022-12-16T17:00:50.434Z,51.42
2022-12-16T17:03:36.401Z,51.58
2022-12-16T17:06:22.762Z,51.39
2022-12-16T17:09:08.169Z,51.60
2022-12-16T17:11:53.429Z,51.47
2022-12-16T17:14:39.879Z,51.21
2022-12-16T17:17:27.168Z,51.10
2022-12-16T17:20:13.672Z,51.37
2022-12-16T17:22:59.089Z,51.33
2022-12-16T17:25:44.535Z,50.79
2022-12-16T17:28:29.946Z,50.88
2022-12-16T17:31:15.321Z,51.04
2022-12-16T17:34:01.029Z,51.07
2022-12-16T17:36:46.373Z,50.79
2022-12-16T17:39:31.601Z,51.14
2022-12-16T17:42:17.061Z,51.09
2022-12-16T17:45:02.314Z,50.78
2022-12-16T17:47:48.178Z,51.02
2022-12-16T17:50:33.444Z,50.70
2022-12-16T17:53:19.099Z,50.86
2022-12-16T17:56:04.575Z,50.71
2022-12-16T17:58:50.415Z,50.60
2022-12-16T18:01:35.790Z,50.72
2022-12-16T18:04:21.300Z,50.77
2022-12-16T18:07:06.700Z,50.48
2022-12-16T18:09:52.157Z,50.47
2022-12-16T18:12:38.797Z,50.48
2022-12-16T18:15:28.529Z,50.27
2022-12-16T18:18:14.988Z,50.46
2022-12-16T18:21:00.257Z,50.11
2022-12-16T18:23:47.464Z,50.33
2022-12-16T18:26:32.870Z,50.20
2022-12-16T18:29:18.172Z,50.13
2022-12-16T18:32:03.592Z,50.22
2022-12-16T18:34:48.949Z,50.13
2022-12-16T18:37:34.258Z,49.87
2022-12-16T18:40:19.706Z,49.79
2022-12-16T18:43:04.950Z,49.55
2022-12-16T18:45:50.302Z,49.81
2022-12-16T18:48:35.739Z,49.68
2022-12-16T18:51:20.793Z,49.45
2022-12-16T18:54:18.868Z,49.44
2022-12-16T18:57:04.245Z,49.49
2022-12-16T18:59:49.344Z,49.28
2022-12-16T19:02:35.172Z,49.13
2022-12-16T19:05:20.814Z,48.94
2022-12-16T19:08:08.895Z,49.06
2022-12-16T19:10:57.801Z,49.00
2022-12-16T19:13:42.911Z,48.68
2022-12-16T19:16:28.803Z,48.86
2022-12-16T19:19:19.663Z,48.65
2022-12-16T19:22:05.715Z,48.37
2022-12-16T19:24:51.102Z,48.40
2022-12-16T19:27:37.092Z,48.27
2022-12-16T19:30:22.505Z,48.43
2022-12-16T19:33:07.849Z,48.14
2022-12-16T19:38:58.646Z,48.18
2022-12-16T19:41:43.883Z,47.82
2022-12-16T19:44:29.444Z,48.00
2022-12-16T19:47:15.493Z,47.76
2022-12-16T19:50:02.473Z,47.91
2022-12-16T19:52:49.098Z,47.65
2022-12-16T19:55:34.571Z,47.54
2022-12-16T19:58:19.879Z,47.55
2022-12-16T20:01:05.791Z,47.91
2022-12-16T20:03:52.343Z,47.59
2022-12-16T20:06:40.518Z,47.65
2022-12-16T20:09:25.861Z,47.57
2022-12-16T20:12:11.185Z,47.42
2022-12-16T20:18:01.766Z,47.52
2022-12-16T20:20:47.248Z,47.27
2022-12-16T20:23:32.541Z,47.60
2022-12-16T20:26:19.080Z,47.23
2022-12-16T20:29:04.487Z,47.27
2022-12-16T20:31:50.256Z,47.35
2022-12-16T20:34:35.668Z,47.62
2022-12-16T20:37:21.025Z,47.59
2022-12-16T20:40:06.364Z,47.27
2022-12-16T20:42:51.583Z,47.18
2022-12-16T20:45:39.015Z,47.41
2022-12-16T20:48:24.346Z,47.52
2022-12-16T20:51:13.473Z,47.30
2022-12-16T20:53:58.714Z,47.62
2022-12-16T20:56:43.979Z,47.25
2022-12-16T20:59:32.139Z,47.54
2022-12-16T21:02:31.619Z,47.23
2022-12-16T21:05:23.089Z,47.20
2022-12-16T21:08:14.662Z,47.21
2022-12-16T21:10:59.906Z,47.36
2022-12-16T21:13:45.920Z,47.18
2022-12-16T21:16:31.465Z,47.38
2022-12-16T21:19:16.885Z,47.23
2022-12-16T21:22:02.359Z,47.27
2022-12-16T21:24:47.799Z,47.43
2022-12-16T21:27:32.821Z,47.07
2022-12-16T21:30:18.294Z,47.18
2022-12-16T21:33:03.849Z,47.08
2022-12-16T21:35:49.282Z,46.94
2022-12-16T21:38:34.609Z,47.28
2022-12-16T21:41:20.060Z,47.30
2022-12-16T21:44:05.303Z,46.91
2022-12-16T21:46:51.907Z,47.05
2022-12-16T21:49:37.070Z,46.94
2022-12-16T21:52:25.044Z,47.11
2022-12-16T21:55:10.410Z,46.86
2022-12-16T21:57:56.435Z,46.77
2022-12-16T22:00:42.042Z,47.09
2022-12-16T22:03:27.452Z,46.85
2022-12-16T22:06:12.610Z,46.72
2022-12-16T22:08:58.202Z,46.87
2022-12-16T22:11:43.477Z,46.82
2022-12-16T22:14:28.655Z,46.64
2022-12-16T22:17:14.194Z,46.61
2022-12-16T22:19:59.593Z,46.82
2022-12-16T22:22:44.916Z,46.64
2022-12-16T22:25:30.198Z,46.71
2022-12-16T22:28:15.520Z,46.49
2022-12-16T22:31:00.738Z,46.46
2022-12-16T22:33:45.924Z,46.41
2022-12-16T22:36:20.178Z,48.28
2022-12-16T22:36:31.369Z,46.61
2022-12-16T22:39:16.549Z,46.46
2022-12-16T22:42:02.072Z,46.49
2022-12-16T22:44:47.433Z,46.44
2022-12-16T22:47:32.878Z,46.37
2022-12-16T22:50:18.435Z,46.34
2022-12-16T22:53:03.925Z,46.06
2022-12-16T22:55:49.408Z,46.13
2022-12-16T22:58:34.736Z,46.16
2022-12-16T23:01:20.157Z,46.08
2022-12-16T23:04:05.614Z,45.86
2022-12-16T23:06:51.938Z,46.00
2022-12-16T23:09:37.653Z,45.99
2022-12-16T23:12:22.891Z,45.92
2022-12-16T23:15:08.361Z,45.60
2022-12-16T23:17:55.095Z,45.52
2022-12-16T23:20:41.460Z,45.82
2022-12-16T23:23:26.707Z,45.63
2022-12-16T23:26:19.779Z,45.72
2022-12-16T23:29:08.663Z,45.73
2022-12-16T23:31:56.428Z,45.75
2022-12-16T23:34:45.781Z,45.67
2022-12-16T23:37:33.768Z,45.59
2022-12-16T23:40:20.243Z,45.79
2022-12-16T23:43:05.652Z,45.68
2022-12-16T23:45:51.112Z,45.54
2022-12-16T23:48:36.951Z,45.65
2022-12-16T23:51:22.201Z,45.44
2022-12-16T23:54:07.900Z,45.56
2022-12-16T23:56:56.389Z,45.32
2022-12-16T23:59:43.276Z,45.19
